Monday, February 18, 2019, 6:05 AM EST
Back to Local

KBHB, Bar Harbor, Hancock County-bar Harbor Airport

Location: Ellsworth, ME, United States Lat: 44.45
Local Time: 6:05 AM EST (11:05 GMT) Lon: -68.367
Time Zone: US/Eastern Elev: 82 ft

Show me the last for .
Show Coded

Time T Td Feel RH Dir Speed Gust Alt SLP Vis Weather Sky Remarks
2019-02-18 04:56 14 5 5 66 30° 6 - 30.02 30.03 10 BKN100 None
2019-02-18 03:56 15 5 3 63 20° 9 - 30.04 30.05 10 BKN100 None
2019-02-18 02:56 17 7 10 63 30° 5 - 30.04 30.05 10 BKN085 None
2019-02-18 01:56 18 7 10 61 20° 6 - 30.05 30.06 10 BKN120 None
2019-02-18 00:56 18 7 13 61 20° 3 - 30.07 30.08 10 SCT110 6-hr Min Temp (1am): 18.0°F
6-hr Max Temp (1am): 24.1°F
2019-02-17 23:56 19 8 14 61 10° 3 - 30.08 30.09 10 FEW120 None
2019-02-17 22:56 19 10 - 67 - Calm - 30.06 30.07 10 CLR None
2019-02-17 21:56 20 6 - 54 - Calm - 30.08 30.09 8 CLR None
2019-02-17 20:56 21 6 16 51 320° 3 - 30.08 30.09 10 CLR None
2019-02-17 19:56 23 7 18 49 350° 3 - 30.06 30.07 10 CLR None
2019-02-17 18:56 24 6 - 45 - Calm - 30.07 30.08 10 CLR 6-hr Min Temp (7pm): 24.1°F
6-hr Max Temp (7pm): 28.0°F
24-hr Min Temp (7pm): 15.1°F
24-hr Max Temp (7pm): 30.9°F
2019-02-17 17:56 25 6 - 43 - Calm - 30.07 30.08 10 CLR None
2019-02-17 16:56 27 3 23 35 320° 3 - 30.08 30.09 10 CLR None
2019-02-17 15:56 27 3 18 35 310° 9 - 30.06 30.07 10 CLR None
2019-02-17 14:56 28 3 24 33 Variable 3 - 30.05 30.06 10 CLR None
2019-02-17 13:56 27 5 23 38 Variable 3 - 30.05 30.06 10 CLR None
2019-02-17 12:56 26 4 19 37 310° 6 - 30.06 30.07 10 CLR 6-hr Min Temp (1pm): 16.0°F
6-hr Max Temp (1pm): 26.1°F
2019-02-17 11:56 22 5 12 47 20° 9 - 30.07 30.08 10 CLR None
2019-02-17 10:56 22 5 16 47 Variable 5 - 30.09 30.10 10 CLR None
2019-02-17 09:56 19 4 8 50 10° 9 - 30.10 30.11 10 CLR None
2019-02-17 08:56 18 6 8 58 320° 8 - 30.09 30.10 10 CLR None
2019-02-17 07:56 17 7 6 63 320° 9 - 30.07 30.08 10 CLR None
2019-02-17 06:56 16 7 - 66 - Calm - 30.04 30.05 10 CLR 6-hr Min Temp (7am): 15.1°F
6-hr Max Temp (7am): 21.0°F

Support USWX by starting your Amazon purchase here.